sensor_id;sensor_type;location;lat;lon;timestamp;temperature;humidity
20732;DHT22;10527;52.124;5.196;2022-10-29T00:01:27;14.90;99.90
20732;DHT22;10527;52.124;5.196;2022-10-29T00:03:54;14.90;99.90
20732;DHT22;10527;52.124;5.196;2022-10-29T00:06:20;14.80;99.90
20732;DHT22;10527;52.124;5.196;2022-10-29T00:08:47;14.70;99.90
20732;DHT22;10527;52.124;5.196;2022-10-29T00:11:17;14.80;99.90
20732;DHT22;10527;52.124;5.196;2022-10-29T00:13:46;14.70;99.90
20732;DHT22;10527;52.124;5.196;2022-10-29T00:16:21;14.70;99.90
20732;DHT22;10527;52.124;5.196;2022-10-29T00:18:50;14.70;99.90
20732;DHT22;10527;52.124;5.196;2022-10-29T00:21:19;14.60;99.90
20732;DHT22;10527;52.124;5.196;2022-10-29T00:23:49;14.60;99.90
20732;DHT22;10527;52.124;5.196;2022-10-29T00:26:17;14.70;99.90
20732;DHT22;10527;52.124;5.196;2022-10-29T00:28:46;14.60;99.90
20732;DHT22;10527;52.124;5.196;2022-10-29T00:31:15;14.60;99.90
20732;DHT22;10527;52.124;5.196;2022-10-29T00:33:45;14.50;99.90
20732;DHT22;10527;52.124;5.196;2022-10-29T00:36:16;14.50;99.90
20732;DHT22;10527;52.124;5.196;2022-10-29T00:38:45;14.50;99.90
20732;DHT22;10527;52.124;5.196;2022-10-29T00:41:14;14.50;99.90
20732;DHT22;10527;52.124;5.196;2022-10-29T00:44:14;14.50;99.90
20732;DHT22;10527;52.124;5.196;2022-10-29T00:46:46;14.40;99.90
20732;DHT22;10527;52.124;5.196;2022-10-29T00:49:16;14.40;99.90
20732;DHT22;10527;52.124;5.196;2022-10-29T00:51:47;14.40;99.90
20732;DHT22;10527;52.124;5.196;2022-10-29T00:54:17;14.30;99.90
20732;DHT22;10527;52.124;5.196;2022-10-29T00:57:12;14.30;99.90
20732;DHT22;10527;52.124;5.196;2022-10-29T00:59:44;14.20;99.90
20732;DHT22;10527;52.124;5.196;2022-10-29T01:02:13;14.10;99.90
20732;DHT22;10527;52.124;5.196;2022-10-29T01:04:42;14.20;99.90
20732;DHT22;10527;52.124;5.196;2022-10-29T01:07:09;14.30;99.90
20732;DHT22;10527;52.124;5.196;2022-10-29T01:09:38;14.30;99.90
20732;DHT22;10527;52.124;5.196;2022-10-29T01:12:20;14.20;99.90
20732;DHT22;10527;52.124;5.196;2022-10-29T01:18:10;14.30;99.90
20732;DHT22;10527;52.124;5.196;2022-10-29T01:21:29;14.20;99.90
20732;DHT22;10527;52.124;5.196;2022-10-29T01:24:10;14.20;99.90
20732;DHT22;10527;52.124;5.196;2022-10-29T01:27:21;14.20;99.90
20732;DHT22;10527;52.124;5.196;2022-10-29T01:38:51;14.00;99.90
20732;DHT22;10527;52.124;5.196;2022-10-29T01:48:07;13.90;99.90
20732;DHT22;10527;52.124;5.196;2022-10-29T01:50:39;13.90;99.90
20732;DHT22;10527;52.124;5.196;2022-10-29T01:53:10;13.90;99.90
20732;DHT22;10527;52.124;5.196;2022-10-29T01:55:37;14.00;99.90
20732;DHT22;10527;52.124;5.196;2022-10-29T01:58:05;13.90;99.90
20732;DHT22;10527;52.124;5.196;2022-10-29T02:09:53;13.80;99.90
20732;DHT22;10527;52.124;5.196;2022-10-29T02:13:12;13.70;99.90
20732;DHT22;10527;52.124;5.196;2022-10-29T02:15:36;13.70;99.90
20732;DHT22;10527;52.124;5.196;2022-10-29T02:18:08;13.60;99.90
20732;DHT22;10527;52.124;5.196;2022-10-29T02:20:40;13.60;99.90
20732;DHT22;10527;52.124;5.196;2022-10-29T02:23:14;13.70;99.90
20732;DHT22;10527;52.124;5.196;2022-10-29T02:25:42;13.70;99.90
20732;DHT22;10527;52.124;5.196;2022-10-29T02:28:09;13.70;99.90
20732;DHT22;10527;52.124;5.196;2022-10-29T02:30:36;13.70;99.90
20732;DHT22;10527;52.124;5.196;2022-10-29T02:33:03;13.80;99.90
20732;DHT22;10527;52.124;5.196;2022-10-29T02:35:30;13.80;99.90
20732;DHT22;10527;52.124;5.196;2022-10-29T02:37:56;13.80;99.90
20732;DHT22;10527;52.124;5.196;2022-10-29T02:40:23;13.80;99.90
20732;DHT22;10527;52.124;5.196;2022-10-29T02:42:50;13.80;99.90
20732;DHT22;10527;52.124;5.196;2022-10-29T02:45:27;13.80;99.90
20732;DHT22;10527;52.124;5.196;2022-10-29T02:47:53;13.80;99.90
20732;DHT22;10527;52.124;5.196;2022-10-29T02:50:21;13.80;99.90
20732;DHT22;10527;52.124;5.196;2022-10-29T02:52:47;13.70;99.90
20732;DHT22;10527;52.124;5.196;2022-10-29T02:55:14;13.70;99.90
20732;DHT22;10527;52.124;5.196;2022-10-29T02:57:45;13.70;99.90
20732;DHT22;10527;52.124;5.196;2022-10-29T03:00:12;13.80;99.90
20732;DHT22;10527;52.124;5.196;2022-10-29T03:02:40;13.80;99.90
20732;DHT22;10527;52.124;5.196;2022-10-29T03:05:07;13.70;99.90
20732;DHT22;10527;52.124;5.196;2022-10-29T03:07:35;13.70;99.90
20732;DHT22;10527;52.124;5.196;2022-10-29T03:10:04;13.70;99.90
20732;DHT22;10527;52.124;5.196;2022-10-29T03:12:33;13.70;99.90
20732;DHT22;10527;52.124;5.196;2022-10-29T03:15:00;13.80;99.90
20732;DHT22;10527;52.124;5.196;2022-10-29T03:17:27;13.70;99.90
20732;DHT22;10527;52.124;5.196;2022-10-29T03:19:53;13.80;99.90
20732;DHT22;10527;52.124;5.196;2022-10-29T03:22:20;13.80;99.90
20732;DHT22;10527;52.124;5.196;2022-10-29T03:24:47;13.80;99.90
20732;DHT22;10527;52.124;5.196;2022-10-29T03:27:13;13.80;99.90
20732;DHT22;10527;52.124;5.196;2022-10-29T03:29:40;13.80;99.90
20732;DHT22;10527;52.124;5.196;2022-10-29T03:32:07;13.70;99.90
20732;DHT22;10527;52.124;5.196;2022-10-29T03:34:34;13.70;99.90
20732;DHT22;10527;52.124;5.196;2022-10-29T03:37:00;13.70;99.90
20732;DHT22;10527;52.124;5.196;2022-10-29T03:39:28;13.80;99.90
20732;DHT22;10527;52.124;5.196;2022-10-29T03:41:55;13.80;99.90
20732;DHT22;10527;52.124;5.196;2022-10-29T03:44:21;13.80;99.90
20732;DHT22;10527;52.124;5.196;2022-10-29T03:46:48;13.80;99.90
20732;DHT22;10527;52.124;5.196;2022-10-29T03:49:15;13.80;99.90
20732;DHT22;10527;52.124;5.196;2022-10-29T03:51:42;13.80;99.90
20732;DHT22;10527;52.124;5.196;2022-10-29T03:54:08;13.80;99.90
20732;DHT22;10527;52.124;5.196;2022-10-29T03:56:35;13.80;99.90
20732;DHT22;10527;52.124;5.196;2022-10-29T03:59:02;13.80;99.90
20732;DHT22;10527;52.124;5.196;2022-10-29T04:01:29;13.80;99.90
20732;DHT22;10527;52.124;5.196;2022-10-29T04:03:56;13.80;99.90
20732;DHT22;10527;52.124;5.196;2022-10-29T04:06:22;13.80;99.90
20732;DHT22;10527;52.124;5.196;2022-10-29T04:08:49;13.80;99.90
20732;DHT22;10527;52.124;5.196;2022-10-29T04:11:16;13.80;99.90
20732;DHT22;10527;52.124;5.196;2022-10-29T04:13:44;13.80;99.90
20732;DHT22;10527;52.124;5.196;2022-10-29T04:16:10;13.80;99.90
20732;DHT22;10527;52.124;5.196;2022-10-29T04:18:37;13.70;99.90
20732;DHT22;10527;52.124;5.196;2022-10-29T04:21:04;13.80;99.90
20732;DHT22;10527;52.124;5.196;2022-10-29T04:23:51;13.80;99.90
20732;DHT22;10527;52.124;5.196;2022-10-29T04:26:38;13.80;99.90
20732;DHT22;10527;52.124;5.196;2022-10-29T04:29:24;13.80;99.90
20732;DHT22;10527;52.124;5.196;2022-10-29T04:31:51;13.80;99.90
20732;DHT22;10527;52.124;5.196;2022-10-29T04:34:18;13.70;99.90
20732;DHT22;10527;52.124;5.196;2022-10-29T04:36:46;13.80;99.90
20732;DHT22;10527;52.124;5.196;2022-10-29T04:39:13;13.70;99.90
20732;DHT22;10527;52.124;5.196;2022-10-29T04:41:42;13.80;99.90
20732;DHT22;10527;52.124;5.196;2022-10-29T04:44:09;13.80;99.90
20732;DHT22;10527;52.124;5.196;2022-10-29T04:46:36;13.80;99.90
20732;DHT22;10527;52.124;5.196;2022-10-29T04:49:02;13.90;99.90
20732;DHT22;10527;52.124;5.196;2022-10-29T04:51:29;13.80;99.90
20732;DHT22;10527;52.124;5.196;2022-10-29T04:53:56;13.90;99.90
20732;DHT22;10527;52.124;5.196;2022-10-29T04:56:23;13.90;99.90
20732;DHT22;10527;52.124;5.196;2022-10-29T04:58:51;13.80;99.90
20732;DHT22;10527;52.124;5.196;2022-10-29T05:01:18;13.80;99.90
20732;DHT22;10527;52.124;5.196;2022-10-29T05:03:45;13.90;99.90
20732;DHT22;10527;52.124;5.196;2022-10-29T05:06:12;13.90;99.90
20732;DHT22;10527;52.124;5.196;2022-10-29T05:08:38;13.80;99.90
20732;DHT22;10527;52.124;5.196;2022-10-29T05:11:06;13.80;99.90
20732;DHT22;10527;52.124;5.196;2022-10-29T05:13:35;13.80;99.90
20732;DHT22;10527;52.124;5.196;2022-10-29T05:16:02;13.80;99.90
20732;DHT22;10527;52.124;5.196;2022-10-29T05:18:29;13.80;99.90
20732;DHT22;10527;52.124;5.196;2022-10-29T05:20:56;13.80;99.90
20732;DHT22;10527;52.124;5.196;2022-10-29T05:23:23;13.70;99.90
20732;DHT22;10527;52.124;5.196;2022-10-29T05:25:50;13.70;99.90
20732;DHT22;10527;52.124;5.196;2022-10-29T05:28:20;13.80;99.90
20732;DHT22;10527;52.124;5.196;2022-10-29T05:30:49;13.80;99.90
20732;DHT22;10527;52.124;5.196;2022-10-29T05:33:20;13.70;99.90
20732;DHT22;10527;52.124;5.196;2022-10-29T05:35:49;13.80;99.90
20732;DHT22;10527;52.124;5.196;2022-10-29T05:38:16;13.80;99.90
20732;DHT22;10527;52.124;5.196;2022-10-29T05:40:44;13.80;99.90
20732;DHT22;10527;52.124;5.196;2022-10-29T05:43:14;13.80;99.90
20732;DHT22;10527;52.124;5.196;2022-10-29T05:45:42;13.80;99.90
20732;DHT22;10527;52.124;5.196;2022-10-29T05:48:10;13.90;99.90
20732;DHT22;10527;52.124;5.196;2022-10-29T05:50:42;13.80;99.90
20732;DHT22;10527;52.124;5.196;2022-10-29T05:53:12;13.90;99.90
20732;DHT22;10527;52.124;5.196;2022-10-29T05:55:40;13.90;99.90
20732;DHT22;10527;52.124;5.196;2022-10-29T05:58:12;13.90;99.90
20732;DHT22;10527;52.124;5.196;2022-10-29T06:00:41;14.00;99.90
20732;DHT22;10527;52.124;5.196;2022-10-29T06:03:20;14.00;99.90
20732;DHT22;10527;52.124;5.196;2022-10-29T06:05:50;13.90;99.90
20732;DHT22;10527;52.124;5.196;2022-10-29T06:08:17;14.00;99.90
20732;DHT22;10527;52.124;5.196;2022-10-29T06:10:51;14.00;99.90
20732;DHT22;10527;52.124;5.196;2022-10-29T06:13:23;14.00;99.90
20732;DHT22;10527;52.124;5.196;2022-10-29T06:15:49;13.90;99.90
20732;DHT22;10527;52.124;5.196;2022-10-29T06:18:23;13.90;99.90
20732;DHT22;10527;52.124;5.196;2022-10-29T06:20:53;14.00;99.90
20732;DHT22;10527;52.124;5.196;2022-10-29T06:23:22;14.00;99.90
20732;DHT22;10527;52.124;5.196;2022-10-29T06:25:49;14.00;99.90
20732;DHT22;10527;52.124;5.196;2022-10-29T06:28:16;14.00;99.90
20732;DHT22;10527;52.124;5.196;2022-10-29T06:30:48;14.00;99.90
20732;DHT22;10527;52.124;5.196;2022-10-29T06:33:17;14.00;99.90
20732;DHT22;10527;52.124;5.196;2022-10-29T06:35:47;14.10;99.90
20732;DHT22;10527;52.124;5.196;2022-10-29T06:38:14;14.10;99.90
20732;DHT22;10527;52.124;5.196;2022-10-29T06:40:42;14.00;99.90
20732;DHT22;10527;52.124;5.196;2022-10-29T06:43:14;14.10;99.90
20732;DHT22;10527;52.124;5.196;2022-10-29T06:45:43;14.10;99.90
20732;DHT22;10527;52.124;5.196;2022-10-29T06:48:10;14.10;99.90
20732;DHT22;10527;52.124;5.196;2022-10-29T06:50:36;14.10;99.90
20732;DHT22;10527;52.124;5.196;2022-10-29T06:53:05;14.10;99.90
20732;DHT22;10527;52.124;5.196;2022-10-29T06:55:33;14.20;99.90
20732;DHT22;10527;52.124;5.196;2022-10-29T06:58:02;14.20;99.90
20732;DHT22;10527;52.124;5.196;2022-10-29T07:00:34;14.20;99.90
20732;DHT22;10527;52.124;5.196;2022-10-29T07:03:01;14.20;99.90
20732;DHT22;10527;52.124;5.196;2022-10-29T07:05:31;14.20;99.90
20732;DHT22;10527;52.124;5.196;2022-10-29T07:08:01;14.20;99.90
20732;DHT22;10527;52.124;5.196;2022-10-29T07:10:29;14.30;99.90
20732;DHT22;10527;52.124;5.196;2022-10-29T07:12:58;14.20;99.90
20732;DHT22;10527;52.124;5.196;2022-10-29T07:15:26;14.30;99.90
20732;DHT22;10527;52.124;5.196;2022-10-29T07:18:02;14.30;99.90
20732;DHT22;10527;52.124;5.196;2022-10-29T07:20:37;14.30;99.90
20732;DHT22;10527;52.124;5.196;2022-10-29T07:23:06;14.30;99.90
20732;DHT22;10527;52.124;5.196;2022-10-29T07:25:34;14.30;99.90
20732;DHT22;10527;52.124;5.196;2022-10-29T07:28:04;14.40;99.90
20732;DHT22;10527;52.124;5.196;2022-10-29T07:30:41;14.40;99.90
20732;DHT22;10527;52.124;5.196;2022-10-29T07:33:09;14.50;99.90
20732;DHT22;10527;52.124;5.196;2022-10-29T07:35:41;14.50;99.90
20732;DHT22;10527;52.124;5.196;2022-10-29T07:38:09;14.50;99.90
20732;DHT22;10527;52.124;5.196;2022-10-29T07:40:39;14.60;99.90
20732;DHT22;10527;52.124;5.196;2022-10-29T07:43:11;14.60;99.90
20732;DHT22;10527;52.124;5.196;2022-10-29T07:45:38;14.70;99.90
20732;DHT22;10527;52.124;5.196;2022-10-29T07:48:05;14.60;99.90
20732;DHT22;10527;52.124;5.196;2022-10-29T07:50:36;14.70;99.90
20732;DHT22;10527;52.124;5.196;2022-10-29T07:53:05;14.80;99.90
20732;DHT22;10527;52.124;5.196;2022-10-29T07:55:33;14.90;99.90
20732;DHT22;10527;52.124;5.196;2022-10-29T07:58:06;14.90;99.90
20732;DHT22;10527;52.124;5.196;2022-10-29T08:00:38;15.00;99.90
20732;DHT22;10527;52.124;5.196;2022-10-29T08:03:06;15.10;99.90
20732;DHT22;10527;52.124;5.196;2022-10-29T08:05:34;15.10;99.90
20732;DHT22;10527;52.124;5.196;2022-10-29T08:08:01;15.20;99.90
20732;DHT22;10527;52.124;5.196;2022-10-29T08:10:29;15.30;99.90
20732;DHT22;10527;52.124;5.196;2022-10-29T08:12:59;15.20;99.90
20732;DHT22;10527;52.124;5.196;2022-10-29T08:15:31;15.20;99.90
20732;DHT22;10527;52.124;5.196;2022-10-29T08:17:59;15.40;99.90
20732;DHT22;10527;52.124;5.196;2022-10-29T08:20:27;15.30;99.90
20732;DHT22;10527;52.124;5.196;2022-10-29T08:22:57;15.50;99.90
20732;DHT22;10527;52.124;5.196;2022-10-29T08:25:27;15.50;99.90
20732;DHT22;10527;52.124;5.196;2022-10-29T08:28:00;15.50;99.90
20732;DHT22;10527;52.124;5.196;2022-10-29T08:30:28;15.70;99.90
20732;DHT22;10527;52.124;5.196;2022-10-29T08:32:56;15.70;99.90
20732;DHT22;10527;52.124;5.196;2022-10-29T08:35:24;15.70;99.90
20732;DHT22;10527;52.124;5.196;2022-10-29T08:37:51;15.80;99.90
20732;DHT22;10527;52.124;5.196;2022-10-29T08:40:48;15.90;99.90
20732;DHT22;10527;52.124;5.196;2022-10-29T08:52:39;16.20;99.90
20732;DHT22;10527;52.124;5.196;2022-10-29T08:55:36;16.20;99.90
20732;DHT22;10527;52.124;5.196;2022-10-29T08:58:26;16.40;99.90
20732;DHT22;10527;52.124;5.196;2022-10-29T09:01:01;16.30;99.90
20732;DHT22;10527;52.124;5.196;2022-10-29T09:03:28;16.40;99.90
20732;DHT22;10527;52.124;5.196;2022-10-29T09:06:19;16.60;99.90
20732;DHT22;10527;52.124;5.196;2022-10-29T09:12:14;16.50;99.90
20732;DHT22;10527;52.124;5.196;2022-10-29T09:15:23;16.50;99.90
20732;DHT22;10527;52.124;5.196;2022-10-29T09:21:17;16.50;99.90
20732;DHT22;10527;52.124;5.196;2022-10-29T09:24:10;16.60;99.90
20732;DHT22;10527;52.124;5.196;2022-10-29T09:26:47;16.70;99.90
20732;DHT22;10527;52.124;5.196;2022-10-29T09:32:06;16.80;99.90
20732;DHT22;10527;52.124;5.196;2022-10-29T09:34:56;16.70;99.90
20732;DHT22;10527;52.124;5.196;2022-10-29T09:37:47;16.70;99.90
20732;DHT22;10527;52.124;5.196;2022-10-29T09:40:34;16.80;99.90
20732;DHT22;10527;52.124;5.196;2022-10-29T09:54:30;16.90;99.90
20732;DHT22;10527;52.124;5.196;2022-10-29T09:56:59;16.90;99.90
20732;DHT22;10527;52.124;5.196;2022-10-29T09:59:43;16.90;99.90
20732;DHT22;10527;52.124;5.196;2022-10-29T10:02:37;17.00;99.90
20732;DHT22;10527;52.124;5.196;2022-10-29T10:05:14;17.00;99.90
20732;DHT22;10527;52.124;5.196;2022-10-29T10:10:55;17.00;99.90
20732;DHT22;10527;52.124;5.196;2022-10-29T10:13:29;17.20;99.90
20732;DHT22;10527;52.124;5.196;2022-10-29T10:16:00;17.20;99.90
20732;DHT22;10527;52.124;5.196;2022-10-29T10:21:04;17.30;99.90
20732;DHT22;10527;52.124;5.196;2022-10-29T10:23:45;17.50;99.90
20732;DHT22;10527;52.124;5.196;2022-10-29T10:26:39;17.50;99.90
20732;DHT22;10527;52.124;5.196;2022-10-29T10:31:47;17.80;99.90
20732;DHT22;10527;52.124;5.196;2022-10-29T10:34:17;17.90;99.90
20732;DHT22;10527;52.124;5.196;2022-10-29T10:37:12;18.00;99.90
20732;DHT22;10527;52.124;5.196;2022-10-29T10:39:59;18.10;99.90
20732;DHT22;10527;52.124;5.196;2022-10-29T10:42:38;18.10;99.90
20732;DHT22;10527;52.124;5.196;2022-10-29T10:45:21;18.20;99.90
20732;DHT22;10527;52.124;5.196;2022-10-29T10:47:53;18.10;99.90
20732;DHT22;10527;52.124;5.196;2022-10-29T10:50:35;18.00;99.90
20732;DHT22;10527;52.124;5.196;2022-10-29T10:53:14;18.20;99.90
20732;DHT22;10527;52.124;5.196;2022-10-29T10:56:02;18.20;99.90
20732;DHT22;10527;52.124;5.196;2022-10-29T10:58:34;18.50;99.90
20732;DHT22;10527;52.124;5.196;2022-10-29T11:03:46;18.70;99.90
20732;DHT22;10527;52.124;5.196;2022-10-29T11:06:27;18.70;99.90
20732;DHT22;10527;52.124;5.196;2022-10-29T11:09:23;18.70;99.90
20732;DHT22;10527;52.124;5.196;2022-10-29T11:12:22;18.80;99.90
20732;DHT22;10527;52.124;5.196;2022-10-29T11:15:17;18.90;99.90
20732;DHT22;10527;52.124;5.196;2022-10-29T11:18:16;19.00;99.90
20732;DHT22;10527;52.124;5.196;2022-10-29T11:20:58;19.00;99.90
20732;DHT22;10527;52.124;5.196;2022-10-29T11:26:49;19.00;99.90
20732;DHT22;10527;52.124;5.196;2022-10-29T11:32:19;19.00;99.90
20732;DHT22;10527;52.124;5.196;2022-10-29T11:35:04;19.10;99.90
20732;DHT22;10527;52.124;5.196;2022-10-29T11:37:57;19.10;99.90
20732;DHT22;10527;52.124;5.196;2022-10-29T11:40:58;19.00;99.90
20732;DHT22;10527;52.124;5.196;2022-10-29T11:43:31;19.00;99.90
20732;DHT22;10527;52.124;5.196;2022-10-29T11:54:52;19.10;99.90
20732;DHT22;10527;52.124;5.196;2022-10-29T11:57:43;19.30;99.90
20732;DHT22;10527;52.124;5.196;2022-10-29T12:00:25;19.30;99.90
20732;DHT22;10527;52.124;5.196;2022-10-29T12:13:00;19.60;99.90
20732;DHT22;10527;52.124;5.196;2022-10-29T12:16:02;19.60;99.90
20732;DHT22;10527;52.124;5.196;2022-10-29T12:21:39;19.70;99.90
20732;DHT22;10527;52.124;5.196;2022-10-29T12:24:44;19.80;99.90
20732;DHT22;10527;52.124;5.196;2022-10-29T12:30:48;20.20;99.90
20732;DHT22;10527;52.124;5.196;2022-10-29T12:33:57;20.20;99.90
20732;DHT22;10527;52.124;5.196;2022-10-29T12:36:45;20.30;99.90
20732;DHT22;10527;52.124;5.196;2022-10-29T12:39:31;20.40;99.90
20732;DHT22;10527;52.124;5.196;2022-10-29T12:42:11;20.50;99.90
20732;DHT22;10527;52.124;5.196;2022-10-29T12:45:28;20.60;99.90
20732;DHT22;10527;52.124;5.196;2022-10-29T12:48:09;20.40;99.90
20732;DHT22;10527;52.124;5.196;2022-10-29T12:56:54;20.50;99.90
20732;DHT22;10527;52.124;5.196;2022-10-29T12:59:36;20.40;99.90
20732;DHT22;10527;52.124;5.196;2022-10-29T13:13:18;20.50;99.90
20732;DHT22;10527;52.124;5.196;2022-10-29T13:16:04;20.50;99.90
20732;DHT22;10527;52.124;5.196;2022-10-29T13:21:07;20.60;99.90
20732;DHT22;10527;52.124;5.196;2022-10-29T13:23:35;20.70;99.90
20732;DHT22;10527;52.124;5.196;2022-10-29T13:26:09;20.60;99.90
20732;DHT22;10527;52.124;5.196;2022-10-29T13:36:00;20.70;99.90
20732;DHT22;10527;52.124;5.196;2022-10-29T13:41:48;20.80;99.90
20732;DHT22;10527;52.124;5.196;2022-10-29T13:44:24;20.80;99.90
20732;DHT22;10527;52.124;5.196;2022-10-29T13:49:36;20.90;99.90
20732;DHT22;10527;52.124;5.196;2022-10-29T13:52:18;21.00;99.90
20732;DHT22;10527;52.124;5.196;2022-10-29T13:55:05;20.90;99.90
20732;DHT22;10527;52.124;5.196;2022-10-29T13:57:50;21.00;99.90
20732;DHT22;10527;52.124;5.196;2022-10-29T14:00:25;21.00;99.90
20732;DHT22;10527;52.124;5.196;2022-10-29T14:02:56;21.10;99.90
20732;DHT22;10527;52.124;5.196;2022-10-29T14:09:22;21.00;99.90
20732;DHT22;10527;52.124;5.196;2022-10-29T14:11:44;21.00;99.90
20732;DHT22;10527;52.124;5.196;2022-10-29T14:14:36;20.80;99.90
20732;DHT22;10527;52.124;5.196;2022-10-29T14:17:15;20.90;99.90
20732;DHT22;10527;52.124;5.196;2022-10-29T14:19:48;20.90;99.90
20732;DHT22;10527;52.124;5.196;2022-10-29T14:22:35;20.90;99.90
20732;DHT22;10527;52.124;5.196;2022-10-29T14:28:14;20.80;99.90
20732;DHT22;10527;52.124;5.196;2022-10-29T14:30:56;20.80;99.90
20732;DHT22;10527;52.124;5.196;2022-10-29T14:33:34;20.80;99.90
20732;DHT22;10527;52.124;5.196;2022-10-29T14:39:15;20.90;99.90
20732;DHT22;10527;52.124;5.196;2022-10-29T14:42:03;20.90;99.90
20732;DHT22;10527;52.124;5.196;2022-10-29T14:44:37;20.80;99.90
20732;DHT22;10527;52.124;5.196;2022-10-29T14:47:07;20.80;99.90
20732;DHT22;10527;52.124;5.196;2022-10-29T14:49:46;20.80;99.90
20732;DHT22;10527;52.124;5.196;2022-10-29T14:52:31;20.80;99.90
20732;DHT22;10527;52.124;5.196;2022-10-29T14:55:13;20.70;99.90
20732;DHT22;10527;52.124;5.196;2022-10-29T14:57:47;20.70;99.90
20732;DHT22;10527;52.124;5.196;2022-10-29T15:00:27;20.70;99.90
20732;DHT22;10527;52.124;5.196;2022-10-29T15:02:55;20.60;99.90
20732;DHT22;10527;52.124;5.196;2022-10-29T15:05:35;20.60;99.90
20732;DHT22;10527;52.124;5.196;2022-10-29T15:10:56;20.60;99.90
20732;DHT22;10527;52.124;5.196;2022-10-29T15:15:59;20.50;99.90
20732;DHT22;10527;52.124;5.196;2022-10-29T15:18:29;20.50;99.90
20732;DHT22;10527;52.124;5.196;2022-10-29T15:20:59;20.40;99.90
20732;DHT22;10527;52.124;5.196;2022-10-29T15:23:29;20.40;99.90
20732;DHT22;10527;52.124;5.196;2022-10-29T15:26:05;20.40;99.90
20732;DHT22;10527;52.124;5.196;2022-10-29T15:28:42;20.30;99.90
20732;DHT22;10527;52.124;5.196;2022-10-29T15:31:42;20.30;99.90
20732;DHT22;10527;52.124;5.196;2022-10-29T15:34:29;20.30;99.90
20732;DHT22;10527;52.124;5.196;2022-10-29T15:40:08;20.20;99.90
20732;DHT22;10527;52.124;5.196;2022-10-29T15:42:39;20.20;99.90
20732;DHT22;10527;52.124;5.196;2022-10-29T15:47:34;20.20;99.90
20732;DHT22;10527;52.124;5.196;2022-10-29T15:50:04;20.20;99.90
20732;DHT22;10527;52.124;5.196;2022-10-29T15:52:36;20.10;99.90
20732;DHT22;10527;52.124;5.196;2022-10-29T15:57:53;20.10;99.90
20732;DHT22;10527;52.124;5.196;2022-10-29T16:00:25;20.00;99.90
20732;DHT22;10527;52.124;5.196;2022-10-29T16:03:18;20.00;99.90
20732;DHT22;10527;52.124;5.196;2022-10-29T16:05:59;19.90;99.90
20732;DHT22;10527;52.124;5.196;2022-10-29T16:08:42;19.90;99.90
20732;DHT22;10527;52.124;5.196;2022-10-29T16:11:16;20.00;99.90
20732;DHT22;10527;52.124;5.196;2022-10-29T16:13:50;19.80;99.90
20732;DHT22;10527;52.124;5.196;2022-10-29T16:16:24;19.80;99.90
20732;DHT22;10527;52.124;5.196;2022-10-29T16:18:51;19.80;99.90
20732;DHT22;10527;52.124;5.196;2022-10-29T16:21:23;19.70;99.90
20732;DHT22;10527;52.124;5.196;2022-10-29T16:23:52;19.70;99.90
20732;DHT22;10527;52.124;5.196;2022-10-29T16:26:23;19.70;99.90
20732;DHT22;10527;52.124;5.196;2022-10-29T16:28:51;19.70;99.90
20732;DHT22;10527;52.124;5.196;2022-10-29T16:31:21;19.60;99.90
20732;DHT22;10527;52.124;5.196;2022-10-29T16:33:53;19.60;99.90
20732;DHT22;10527;52.124;5.196;2022-10-29T16:36:24;19.60;99.90
20732;DHT22;10527;52.124;5.196;2022-10-29T16:38:51;19.60;99.90
20732;DHT22;10527;52.124;5.196;2022-10-29T16:41:18;19.60;99.90
20732;DHT22;10527;52.124;5.196;2022-10-29T16:43:46;19.50;99.90
20732;DHT22;10527;52.124;5.196;2022-10-29T16:46:14;19.60;99.90
20732;DHT22;10527;52.124;5.196;2022-10-29T16:48:41;19.60;99.90
20732;DHT22;10527;52.124;5.196;2022-10-29T16:51:08;19.50;99.90
20732;DHT22;10527;52.124;5.196;2022-10-29T16:53:35;19.50;99.90
20732;DHT22;10527;52.124;5.196;2022-10-29T16:56:02;19.50;99.90
20732;DHT22;10527;52.124;5.196;2022-10-29T16:58:29;19.50;99.90
20732;DHT22;10527;52.124;5.196;2022-10-29T17:01:08;19.50;99.90
20732;DHT22;10527;52.124;5.196;2022-10-29T17:03:36;19.40;99.90
20732;DHT22;10527;52.124;5.196;2022-10-29T17:06:27;19.50;99.90
20732;DHT22;10527;52.124;5.196;2022-10-29T17:08:53;19.50;99.90
20732;DHT22;10527;52.124;5.196;2022-10-29T17:11:20;19.50;99.90
20732;DHT22;10527;52.124;5.196;2022-10-29T17:13:47;19.40;99.90
20732;DHT22;10527;52.124;5.196;2022-10-29T17:16:13;19.40;99.90
20732;DHT22;10527;52.124;5.196;2022-10-29T17:18:41;19.40;99.90
20732;DHT22;10527;52.124;5.196;2022-10-29T17:21:08;19.40;99.90
20732;DHT22;10527;52.124;5.196;2022-10-29T17:23:35;19.40;99.90
20732;DHT22;10527;52.124;5.196;2022-10-29T17:26:02;19.40;99.90
20732;DHT22;10527;52.124;5.196;2022-10-29T17:28:28;19.40;99.90
20732;DHT22;10527;52.124;5.196;2022-10-29T17:30:55;19.30;99.90
20732;DHT22;10527;52.124;5.196;2022-10-29T17:33:22;19.40;99.90
20732;DHT22;10527;52.124;5.196;2022-10-29T17:36:05;19.40;99.90
20732;DHT22;10527;52.124;5.196;2022-10-29T17:38:35;19.40;99.90
20732;DHT22;10527;52.124;5.196;2022-10-29T17:41:02;19.30;99.90
20732;DHT22;10527;52.124;5.196;2022-10-29T17:43:29;19.30;99.90
20732;DHT22;10527;52.124;5.196;2022-10-29T17:45:57;19.30;99.90
20732;DHT22;10527;52.124;5.196;2022-10-29T17:48:24;19.30;99.90
20732;DHT22;10527;52.124;5.196;2022-10-29T17:50:56;19.30;99.90
20732;DHT22;10527;52.124;5.196;2022-10-29T17:53:25;19.30;99.90
20732;DHT22;10527;52.124;5.196;2022-10-29T17:55:58;19.30;99.90
20732;DHT22;10527;52.124;5.196;2022-10-29T17:58:25;19.30;99.90
20732;DHT22;10527;52.124;5.196;2022-10-29T18:00:53;19.30;99.90
20732;DHT22;10527;52.124;5.196;2022-10-29T18:03:23;19.40;99.90
20732;DHT22;10527;52.124;5.196;2022-10-29T18:05:58;19.30;99.90
20732;DHT22;10527;52.124;5.196;2022-10-29T18:08:27;19.20;99.90
20732;DHT22;10527;52.124;5.196;2022-10-29T18:11:10;19.10;99.90
20732;DHT22;10527;52.124;5.196;2022-10-29T18:13:43;19.20;99.90
20732;DHT22;10527;52.124;5.196;2022-10-29T18:16:16;19.20;99.90
20732;DHT22;10527;52.124;5.196;2022-10-29T18:18:47;19.20;99.90
20732;DHT22;10527;52.124;5.196;2022-10-29T18:21:29;19.20;99.90
20732;DHT22;10527;52.124;5.196;2022-10-29T18:23:56;19.20;99.90
20732;DHT22;10527;52.124;5.196;2022-10-29T18:26:41;19.20;99.90
20732;DHT22;10527;52.124;5.196;2022-10-29T18:29:10;19.10;99.90
20732;DHT22;10527;52.124;5.196;2022-10-29T18:31:38;19.20;99.90
20732;DHT22;10527;52.124;5.196;2022-10-29T18:34:08;19.10;99.90
20732;DHT22;10527;52.124;5.196;2022-10-29T18:36:35;19.00;99.90
20732;DHT22;10527;52.124;5.196;2022-10-29T18:39:03;19.10;99.90
20732;DHT22;10527;52.124;5.196;2022-10-29T18:41:32;19.00;99.90
20732;DHT22;10527;52.124;5.196;2022-10-29T18:44:00;19.00;99.90
20732;DHT22;10527;52.124;5.196;2022-10-29T18:46:27;18.90;99.90